Airfield :
LOGIN :

Register | Disclaimer

   EN    FR    IT 

 










Legend :    VFR   Marginal VFR   IFR   Intensive IFR   Very Intensive IFR
Visi :
Ceiling :
>= 8 km
>= 3000ft
5 to 8 km
1000 to 3000 ft
1500m to 5 km
500 to 1000 ft
800 to 1500m
200 to 500 ft
< 800m
< 200 ft
Symbols :   Thunderstorms  Fog  Heavy snow  Heavy precipitations  Wind > 20 kt
SIGMETs :     Misc.  Thunderstorms  Icing  Turbulence  Mountain Waves  Volcanic Ashes






- Airport Elevation : 779 ft
- IATA code : CMF


LFLB - Chambery / Aix-Les-Bains

CURRENT METAR :
  • 021730Z AUTO 34008KT 310V030 9999 FEW072/// BKN090/// BKN110/// ///CB 26/15 Q1014 TEMPO SHRA BECMG FEW040 SCT060

EXPIRED METARs :
  • 021700Z AUTO 34011KT 9999 SCT062 BKN098 BKN150 25/15 Q1014 TEMPO SHRA FEW040CB SCT050TCU
  • 021630Z AUTO 01011KT 9999 FEW066 SCT160 25/16 Q1014 TEMPO SHRA FEW040CB SCT050TCU
  • 021600Z AUTO 01010KT 9999 FEW060 SCT084 26/16 Q1013 TEMPO SHRA FEW040CB SCT050TCU
  • 021530Z AUTO 36012KT 330V060 9999 FEW054 SCT064 26/16 Q1013 TEMPO SHRA FEW040CB SCT050TCU
  • 021500Z AUTO 36010KT 330V030 9999 BKN054 BKN080 28/17 Q1013 TEMPO SHRA FEW040CB SCT050TCU

TAF TAF LFLB
Valid from the 02 at 12:00 until the 03 at 12:00 UTC


021100Z 0212/0312 36008KT 9999 FEW040 SCT060
PROB30
TEMPO 0214/0219 VRB12G25KT SHRA FEW040CB SCT050TCU



MET'MAP, your aeronautical weather chart ! - Copyright ORBIFLY December 2007 - Disclaimer

ORBIFLY MET'MAP TEAM :

Programming & Development : Alexandra Zaïnal
Concept & original design : Baudouin d'Aumeries
Assistance for programming : Marc-Olivier Méhu
Technical & hardware support : Manuel Goepfert

Contact : metmap@orbifly.com




SOURCES & CREDITS :

   NOAA